VOE6R LIRF-LFBT
Flight info
| Callsign | VOE6R |
|---|---|
| Flight time | N/A |
| Altitude | 38000 |
| Route | NEMBO DCT BEGUD DCT MIRSA DCT OMARD DCT STP/N0441F370 DCT PADKO/N0441F380 DCT FJR DCT GAI/N0437F370 DCT AGN |
| Aircraft | A319/M-SDE3FGHIRWY/LB1 |
Departure
| Time | 2026-05-07 11:36 |
|---|---|
| Airport | Rome–Fiumicino Leonardo da Vinci International Airport (LIRF) |
Arrival
| Time | N/A |
|---|---|
| Airport | Tarbes-Lourdes-Pyrénées Airport (LFBT) |
| Time | Latitude | Longitude | Altitude | Speed | Heading |
|---|---|---|---|---|---|
| 2026-05-07 11:16 | 41.79668 | 12.25822 | 14 ft | 0 kts | 115° |
| 2026-05-07 11:26 | 41.79676 | 12.25799 | 14 ft | 4 kts | 115° |
| 2026-05-07 11:26 | 41.79685 | 12.25771 | 16 ft | 3 kts | 115° |
| 2026-05-07 11:27 | 41.79688 | 12.25752 | 14 ft | 4 kts | 33° |
| 2026-05-07 11:27 | 41.79666 | 12.25736 | 14 ft | 3 kts | 25° |
| 2026-05-07 11:27 | 41.79663 | 12.25735 | 14 ft | 0 kts | 25° |
| 2026-05-07 11:30 | 41.79669 | 12.25739 | 15 ft | 3 kts | 25° |
| 2026-05-07 11:30 | 41.79709 | 12.25764 | 15 ft | 9 kts | 25° |
| 2026-05-07 11:30 | 41.79777 | 12.25807 | 14 ft | 9 kts | 25° |
| 2026-05-07 11:30 | 41.79834 | 12.25838 | 14 ft | 7 kts | 4° |
| 2026-05-07 11:31 | 41.79886 | 12.25832 | 14 ft | 10 kts | 23° |
| 2026-05-07 11:31 | 41.79969 | 12.25882 | 14 ft | 16 kts | 25° |
| 2026-05-07 11:31 | 41.80081 | 12.25952 | 15 ft | 20 kts | 25° |
| 2026-05-07 11:31 | 41.80226 | 12.26041 | 15 ft | 25 kts | 25° |
| 2026-05-07 11:32 | 41.80464 | 12.26176 | 16 ft | 13 kts | 3° |
| 2026-05-07 11:32 | 41.80525 | 12.26225 | 16 ft | 12 kts | 69° |
| 2026-05-07 11:32 | 41.80560 | 12.26354 | 16 ft | 17 kts | 70° |
| 2026-05-07 11:33 | 41.80609 | 12.26531 | 18 ft | 23 kts | 70° |
| 2026-05-07 11:33 | 41.80669 | 12.26748 | 16 ft | 27 kts | 70° |
| 2026-05-07 11:33 | 41.80730 | 12.26972 | 13 ft | 16 kts | 70° |
| 2026-05-07 11:33 | 41.80778 | 12.27046 | 16 ft | 11 kts | 13° |
| 2026-05-07 11:34 | 41.80850 | 12.27021 | 13 ft | 11 kts | 340° |
| 2026-05-07 11:34 | 41.80931 | 12.26981 | 13 ft | 13 kts | 340° |
| 2026-05-07 11:34 | 41.80951 | 12.26901 | 13 ft | 8 kts | 249° |
| 2026-05-07 11:34 | 41.80949 | 12.26895 | 13 ft | 0 kts | 249° |
| 2026-05-07 11:35 | 41.80948 | 12.26892 | 14 ft | 0 kts | 249° |
| 2026-05-07 11:35 | 41.80948 | 12.26889 | 14 ft | 1 kts | 249° |
| 2026-05-07 11:35 | 41.80927 | 12.26814 | 14 ft | 33 kts | 250° |
| 2026-05-07 11:35 | 41.80750 | 12.26174 | 20 ft | 111 kts | 250° |
| 2026-05-07 11:36 | 41.80406 | 12.24927 | 51 ft | 167 kts | 249° |
| 2026-05-07 11:36 | 41.80018 | 12.23482 | 711 ft | 166 kts | 251° |
| 2026-05-07 11:36 | 41.79606 | 12.22016 | 1392 ft | 170 kts | 249° |
| 2026-05-07 11:36 | 41.79247 | 12.20473 | 1903 ft | 187 kts | 265° |
| 2026-05-07 11:37 | 41.79233 | 12.18596 | 2321 ft | 215 kts | 271° |
| 2026-05-07 11:37 | 41.79206 | 12.16494 | 2834 ft | 240 kts | 269° |
| 2026-05-07 11:37 | 41.79154 | 12.14149 | 3458 ft | 260 kts | 268° |
| 2026-05-07 11:37 | 41.79089 | 12.11709 | 4427 ft | 266 kts | 268° |
| 2026-05-07 11:38 | 41.79024 | 12.09206 | 5506 ft | 268 kts | 268° |
| 2026-05-07 11:38 | 41.78998 | 12.06699 | 6575 ft | 270 kts | 269° |
| 2026-05-07 11:38 | 41.78995 | 12.04191 | 7571 ft | 272 kts | 270° |
| 2026-05-07 11:38 | 41.78998 | 12.01632 | 8600 ft | 274 kts | 269° |
| 2026-05-07 11:39 | 41.79000 | 11.99093 | 9620 ft | 276 kts | 269° |
| 2026-05-07 11:39 | 41.79000 | 11.96492 | 10460 ft | 285 kts | 269° |
| 2026-05-07 11:39 | 41.78996 | 11.93760 | 10865 ft | 306 kts | 269° |
| 2026-05-07 11:39 | 41.78990 | 11.90854 | 11602 ft | 313 kts | 268° |
| 2026-05-07 11:40 | 41.78984 | 11.87911 | 12460 ft | 317 kts | 268° |
| 2026-05-07 11:40 | 41.78978 | 11.84927 | 13280 ft | 322 kts | 268° |
| 2026-05-07 11:40 | 41.78970 | 11.81935 | 14068 ft | 327 kts | 268° |
| 2026-05-07 11:40 | 41.78958 | 11.78859 | 14818 ft | 329 kts | 267° |
| 2026-05-07 11:41 | 41.78945 | 11.75802 | 15588 ft | 331 kts | 267° |
| 2026-05-07 11:41 | 41.78930 | 11.72688 | 16380 ft | 333 kts | 267° |
| 2026-05-07 11:41 | 41.78913 | 11.69598 | 17147 ft | 335 kts | 267° |
| 2026-05-07 11:41 | 41.78895 | 11.66452 | 17937 ft | 337 kts | 267° |
| 2026-05-07 11:42 | 41.78878 | 11.63322 | 18631 ft | 340 kts | 267° |
| 2026-05-07 11:42 | 41.78871 | 11.60129 | 19288 ft | 343 kts | 269° |
| 2026-05-07 11:42 | 41.79220 | 11.56927 | 19939 ft | 350 kts | 281° |
| 2026-05-07 11:42 | 41.80103 | 11.53885 | 20584 ft | 358 kts | 293° |
| 2026-05-07 11:43 | 41.81531 | 11.51094 | 21225 ft | 368 kts | 305° |
| 2026-05-07 11:43 | 41.83246 | 11.48490 | 21877 ft | 372 kts | 306° |
| 2026-05-07 11:43 | 41.84943 | 11.45913 | 22498 ft | 375 kts | 305° |
| 2026-05-07 11:43 | 41.86680 | 11.43268 | 23131 ft | 378 kts | 305° |
| 2026-05-07 11:44 | 41.88427 | 11.40598 | 23712 ft | 381 kts | 304° |
| 2026-05-07 11:44 | 41.90163 | 11.37938 | 24226 ft | 384 kts | 304° |
| 2026-05-07 11:44 | 41.91930 | 11.35227 | 24765 ft | 385 kts | 304° |
| 2026-05-07 11:44 | 41.93697 | 11.32513 | 25308 ft | 386 kts | 304° |
| 2026-05-07 11:45 | 41.95453 | 11.29811 | 25844 ft | 387 kts | 304° |
| 2026-05-07 11:45 | 41.97231 | 11.27075 | 26364 ft | 388 kts | 304° |
| 2026-05-07 11:45 | 41.99023 | 11.24322 | 26884 ft | 390 kts | 304° |
| 2026-05-07 11:45 | 42.00791 | 11.21607 | 27378 ft | 391 kts | 304° |
| 2026-05-07 11:46 | 42.02595 | 11.18839 | 27878 ft | 392 kts | 303° |
| 2026-05-07 11:46 | 42.04399 | 11.16065 | 28382 ft | 394 kts | 303° |
| 2026-05-07 11:46 | 42.06202 | 11.13278 | 28863 ft | 395 kts | 303° |
| 2026-05-07 11:46 | 42.07997 | 11.10493 | 29372 ft | 397 kts | 303° |
| 2026-05-07 11:47 | 42.09814 | 11.07673 | 29828 ft | 399 kts | 303° |
| 2026-05-07 11:47 | 42.11620 | 11.04875 | 30252 ft | 401 kts | 303° |
| 2026-05-07 11:47 | 42.13464 | 11.02019 | 30621 ft | 403 kts | 303° |
| 2026-05-07 11:47 | 42.15300 | 10.99174 | 30967 ft | 405 kts | 303° |
| 2026-05-07 11:48 | 42.17160 | 10.96291 | 31313 ft | 407 kts | 303° |
| 2026-05-07 11:48 | 42.19033 | 10.93382 | 31646 ft | 410 kts | 303° |
| 2026-05-07 11:48 | 42.20887 | 10.90505 | 32063 ft | 409 kts | 303° |
| 2026-05-07 11:48 | 42.22742 | 10.87626 | 32539 ft | 408 kts | 303° |
| 2026-05-07 11:49 | 42.24605 | 10.84728 | 33010 ft | 407 kts | 303° |
| 2026-05-07 11:49 | 42.26467 | 10.81827 | 33483 ft | 406 kts | 303° |
| 2026-05-07 11:49 | 42.28296 | 10.78968 | 33954 ft | 405 kts | 303° |
| 2026-05-07 11:49 | 42.30109 | 10.76037 | 34369 ft | 402 kts | 301° |
| 2026-05-07 11:50 | 42.31803 | 10.73068 | 34747 ft | 400 kts | 300° |
| 2026-05-07 11:50 | 42.32891 | 10.71065 | 34983 ft | 399 kts | 299° |
| 2026-05-07 11:50 | 42.35034 | 10.67007 | 35447 ft | 398 kts | 298° |
| 2026-05-07 11:50 | 42.36645 | 10.63941 | 35792 ft | 398 kts | 298° |
| 2026-05-07 11:51 | 42.38238 | 10.60929 | 36124 ft | 398 kts | 299° |
| 2026-05-07 11:51 | 42.39865 | 10.57885 | 36455 ft | 398 kts | 299° |
| 2026-05-07 11:51 | 42.40951 | 10.55874 | 36688 ft | 398 kts | 299° |
| 2026-05-07 11:51 | 42.43127 | 10.51866 | 37085 ft | 398 kts | 300° |
| 2026-05-07 11:52 | 42.44235 | 10.49832 | 37292 ft | 398 kts | 300° |
| 2026-05-07 11:52 | 42.46397 | 10.45855 | 37691 ft | 397 kts | 300° |
| 2026-05-07 11:52 | 42.47489 | 10.43840 | 37886 ft | 397 kts | 300° |
| 2026-05-07 11:52 | 42.49658 | 10.39820 | 38030 ft | 396 kts | 299° |
| 2026-05-07 11:53 | 42.50739 | 10.37813 | 38033 ft | 395 kts | 299° |
| 2026-05-07 11:53 | 42.53989 | 10.31779 | 38033 ft | 394 kts | 299° |
| 2026-05-07 11:54 | 42.57210 | 10.25778 | 38038 ft | 396 kts | 300° |
| 2026-05-07 11:54 | 42.60450 | 10.19736 | 38046 ft | 397 kts | 300° |
| 2026-05-07 11:55 | 42.63697 | 10.13656 | 38035 ft | 399 kts | 300° |
| 2026-05-07 11:55 | 42.66973 | 10.07527 | 38030 ft | 399 kts | 300° |
| 2026-05-07 11:56 | 42.70208 | 10.01459 | 38025 ft | 399 kts | 300° |
| 2026-05-07 11:56 | 42.73459 | 9.95345 | 38025 ft | 399 kts | 300° |
| 2026-05-07 11:57 | 42.76694 | 9.89237 | 38025 ft | 399 kts | 300° |
| 2026-05-07 11:57 | 42.79479 | 9.82756 | 38034 ft | 392 kts | 291° |
| 2026-05-07 11:58 | 42.81839 | 9.76094 | 38032 ft | 390 kts | 287° |
| 2026-05-07 11:58 | 42.83112 | 9.69017 | 38019 ft | 385 kts | 277° |
| 2026-05-07 11:59 | 42.84106 | 9.61836 | 38012 ft | 386 kts | 277° |
| 2026-05-07 11:59 | 42.85111 | 9.54678 | 38011 ft | 387 kts | 277° |
| 2026-05-07 12:00 | 42.86112 | 9.47475 | 38007 ft | 387 kts | 277° |
| 2026-05-07 12:00 | 42.87113 | 9.40250 | 38017 ft | 387 kts | 277° |
| 2026-05-07 12:01 | 42.88098 | 9.33047 | 38019 ft | 388 kts | 277° |
| 2026-05-07 12:01 | 42.89089 | 9.25785 | 38021 ft | 388 kts | 277° |
| 2026-05-07 12:02 | 42.90066 | 9.18581 | 38018 ft | 388 kts | 277° |
| 2026-05-07 12:02 | 42.91040 | 9.11342 | 38019 ft | 388 kts | 277° |
| 2026-05-07 12:03 | 42.92014 | 9.04114 | 38035 ft | 388 kts | 277° |
| 2026-05-07 12:03 | 42.92988 | 8.96868 | 38028 ft | 388 kts | 277° |
| 2026-05-07 12:04 | 42.93947 | 8.89651 | 38022 ft | 388 kts | 277° |
| 2026-05-07 12:04 | 42.94906 | 8.82411 | 38022 ft | 388 kts | 277° |
| 2026-05-07 12:05 | 42.95860 | 8.75178 | 38023 ft | 388 kts | 277° |
| 2026-05-07 12:05 | 42.96805 | 8.67948 | 38026 ft | 387 kts | 277° |
| 2026-05-07 12:06 | 42.97745 | 8.60716 | 38028 ft | 387 kts | 277° |
| 2026-05-07 12:06 | 42.98686 | 8.53468 | 38018 ft | 387 kts | 276° |
| 2026-05-07 12:07 | 42.99614 | 8.46240 | 38005 ft | 387 kts | 276° |
| 2026-05-07 12:07 | 43.00537 | 8.39025 | 38008 ft | 387 kts | 276° |
| 2026-05-07 12:08 | 43.01468 | 8.31748 | 38015 ft | 387 kts | 276° |
| 2026-05-07 12:08 | 43.02390 | 8.24518 | 38013 ft | 387 kts | 276° |
| 2026-05-07 12:09 | 43.03303 | 8.17294 | 38009 ft | 387 kts | 276° |
| 2026-05-07 12:09 | 43.04211 | 8.10059 | 38009 ft | 387 kts | 276° |
| 2026-05-07 12:10 | 43.05114 | 8.02846 | 38004 ft | 387 kts | 276° |
| 2026-05-07 12:10 | 43.06015 | 7.95610 | 38025 ft | 387 kts | 276° |
| 2026-05-07 12:11 | 43.06910 | 7.88360 | 38013 ft | 387 kts | 276° |